20U

Beach Airport

Beach, North Dakota, USA
METAR K20U 210515Z AUTO 33003KT 10SM OVC065 13/05 A3033 RMK AO2
Observed Flight Rules
Aug-21 @ 05:15 UTC (12 hours ago) Visual Flight Rules
Wind Visibility Clouds
330° at 3 knots 10 miles
  • Overcast at 6,500' AGL
Temperatures Readings
Current 13°C / 55°F
Dewpoint 5°C / 41°F
Humidity 59%
Altimeter 30.33" Hg
Pressure 1027 hPa
Elevation 840
METAR K20U 210515Z AUTO 33003KT 10SM OVC065 13/05 A3033 RMK AO2
Observed Flight Rules
Aug-21 @ 05:15 UTC
(12 hours ago)
VFR
Wind Visibility
330° at 3 knots 10 miles
Clouds
  • Overcast at 6,500' AGL
Temperature Dewpoint
13°C / 55°F 5°C / 41°F
Humidity Altimeter Pressure
59% 30.33" Hg 1027 hPa